Terminal Aerodrome Forecast
Issued by NWS Dallas/Fort Worth, TX

Home | Current Version | Previous Version | Text Only | Print | Product List | Glossary On
Versions: 1 2 3 4 5 6 7 8 9 10 11 12 13 14 15 16 17 18 19 20 21 22 23 24 25 26 27 28 29 30 31 32 33 34 35 36 37 38
000
FTUS44 KFWD 271144
TAFACT
TAF
KACT 271144Z 2712/2812 VRB04KT P6SM BKN250
     FM271600 17010KT P6SM BKN020
     FM271900 16010KT P6SM BKN035
     FM272200 16014KT P6SM VCTS SCT015 BKN035CB
     FM280100 15010KT P6SM SCT040 BKN060
     FM280600 15010KT P6SM BKN015=

USA.gov is the U.S. government's official web portal to all federal, state and local government web resources and services.